Time;durP1;ratioP1;P1;durP2;ratioP2;P2;SDS_P1;SDS_P2;PMS_P1;PMS_P2;Temp;Humidity;BMP_temperature;BMP_pressure;BME280_temperature;BME280_humidity;BME280_pressure;Samples;Min_cycle;Max_cycle;Signal;HPM_P1;HPM_P2
2023/08/15 00:01:50;;;;;;;14.65;10.82;;;17.90;99.90;;;;;;5074396;28;20629;-43
2023/08/15 00:04:15;;;;;;;15.57;9.90;;;17.90;99.90;;;;;;5075948;28;20061;-43
2023/08/15 00:06:41;;;;;;;11.77;10.52;;;18.00;99.90;;;;;;5076276;28;20054;-42
2023/08/15 00:09:06;;;;;;;13.38;9.95;;;18.00;99.90;;;;;;5076526;28;20429;-42
2023/08/15 00:11:32;;;;;;;11.98;10.75;;;18.00;99.90;;;;;;5074412;28;20056;-43
2023/08/15 00:13:58;;;;;;;13.57;10.23;;;18.00;99.90;;;;;;5069030;28;20049;-39
2023/08/15 00:16:24;;;;;;;12.13;10.63;;;18.10;99.90;;;;;;5055582;28;20076;-44
2023/08/15 00:18:49;;;;;;;16.08;11.32;;;18.10;99.90;;;;;;5058631;28;20062;-39
2023/08/15 00:21:15;;;;;;;14.02;11.75;;;18.10;99.90;;;;;;5075598;28;20039;-45
2023/08/15 00:23:41;;;;;;;13.80;11.23;;;18.10;99.90;;;;;;5069163;28;20048;-41
2023/08/15 00:26:06;;;;;;;15.50;11.93;;;18.10;99.90;;;;;;5064348;28;20048;-40
2023/08/15 00:28:32;;;;;;;13.93;10.77;;;18.10;99.90;;;;;;5074075;28;20240;-44
2023/08/15 00:30:57;;;;;;;18.60;11.13;;;18.10;99.90;;;;;;5075140;28;20075;-43
2023/08/15 00:33:23;;;;;;;16.58;11.52;;;18.20;99.90;;;;;;5074986;28;20040;-45
2023/08/15 00:35:49;;;;;;;13.55;10.13;;;18.20;99.90;;;;;;5074672;28;20052;-40
2023/08/15 00:38:15;;;;;;;13.30;10.68;;;18.20;99.90;;;;;;5075108;28;20044;-45
2023/08/15 00:40:41;;;;;;;14.98;11.50;;;18.20;99.90;;;;;;5074894;28;20135;-39
2023/08/15 00:43:07;;;;;;;12.57;10.05;;;18.20;99.90;;;;;;5074255;28;20115;-43
2023/08/15 00:45:37;;;;;;;15.35;11.30;;;18.20;99.90;;;;;;5074107;28;20120;-43
2023/08/15 00:48:03;;;;;;;16.08;11.20;;;18.30;99.90;;;;;;5075025;28;20450;-40
2023/08/15 00:50:28;;;;;;;14.57;11.00;;;18.30;99.90;;;;;;5074390;28;20497;-40
2023/08/15 00:52:55;;;;;;;15.35;11.35;;;18.30;99.90;;;;;;5046909;28;20404;-40
2023/08/15 00:55:21;;;;;;;14.43;10.77;;;18.20;99.90;;;;;;5054446;28;20463;-41
2023/08/15 00:57:47;;;;;;;16.67;10.65;;;18.20;99.90;;;;;;5072476;28;20161;-42
2023/08/15 01:00:13;;;;;;;13.60;11.27;;;18.20;99.90;;;;;;5074982;28;20051;-41
2023/08/15 01:02:39;;;;;;;15.45;11.20;;;18.10;99.90;;;;;;5074427;28;20412;-41
2023/08/15 01:05:06;;;;;;;15.00;11.23;;;18.10;99.90;;;;;;5073606;28;20059;-42
2023/08/15 01:07:32;;;;;;;14.70;11.00;;;18.10;99.90;;;;;;5074970;28;20487;-43
2023/08/15 01:09:58;;;;;;;16.85;11.88;;;18.10;99.90;;;;;;5074429;28;20090;-40
2023/08/15 01:12:38;;;;;;;14.10;11.63;;;18.00;99.90;;;;;;5074116;28;20048;-42
2023/08/15 01:15:16;;;;;;;15.32;11.30;;;18.00;99.90;;;;;;5053905;28;20101;-42
2023/08/15 01:17:55;;;;;;;12.95;10.57;;;17.90;99.90;;;;;;5054350;28;20041;-42
2023/08/15 01:20:27;;;;;;;15.18;11.45;;;17.90;99.90;;;;;;5069342;28;20173;-42
2023/08/15 01:22:57;;;;;;;15.67;11.70;;;17.90;99.90;;;;;;5068223;28;20044;-43
2023/08/15 01:25:22;;;;;;;14.40;10.82;;;17.90;99.90;;;;;;5071270;28;20271;-43
2023/08/15 01:27:48;;;;;;;16.17;11.57;;;17.80;99.90;;;;;;5064616;28;20120;-40
2023/08/15 01:30:15;;;;;;;14.77;11.93;;;17.80;99.90;;;;;;5073054;28;20044;-43
2023/08/15 01:33:09;;;;;;;13.70;11.05;;;17.80;99.90;;;;;;5072728;28;20109;-45
2023/08/15 01:35:45;;;;;;;15.38;12.23;;;17.80;99.90;;;;;;5066918;28;20046;-43
2023/08/15 01:38:17;;;;;;;12.80;11.00;;;17.70;99.90;;;;;;5036123;28;20048;-41
2023/08/15 01:40:47;;;;;;;14.00;12.32;;;17.70;99.90;;;;;;5054125;28;20101;-40
2023/08/15 01:43:14;;;;;;;12.93;11.48;;;17.70;99.90;;;;;;5053589;28;20049;-43
2023/08/15 01:45:40;;;;;;;15.93;12.80;;;17.70;99.90;;;;;;5054988;28;20078;-40
2023/08/15 01:48:06;;;;;;;12.77;11.02;;;17.70;99.90;;;;;;5053864;28;20637;-42
2023/08/15 01:50:31;;;;;;;13.10;10.65;;;17.70;99.90;;;;;;5053390;28;20079;-43
2023/08/15 01:52:57;;;;;;;13.63;10.85;;;17.70;99.90;;;;;;5045390;28;20110;-39
2023/08/15 01:55:23;;;;;;;15.05;10.70;;;17.60;99.90;;;;;;5074775;28;20054;-47
2023/08/15 01:57:48;;;;;;;13.15;11.75;;;17.60;99.90;;;;;;5074778;28;20351;-42
2023/08/15 02:00:14;;;;;;;17.02;11.63;;;17.70;99.90;;;;;;5074255;28;20087;-46
2023/08/15 02:02:40;;;;;;;17.45;12.80;;;17.60;99.90;;;;;;5070331;28;20120;-44
2023/08/15 02:05:06;;;;;;;17.02;12.90;;;17.70;99.90;;;;;;5064638;28;20478;-43
2023/08/15 02:07:32;;;;;;;17.35;12.77;;;17.60;99.90;;;;;;5074387;28;20075;-44
2023/08/15 02:09:57;;;;;;;17.48;11.50;;;17.70;99.90;;;;;;5074791;28;20583;-39
2023/08/15 02:12:23;;;;;;;15.55;11.93;;;17.60;99.90;;;;;;5074660;28;20052;-45
2023/08/15 02:14:48;;;;;;;21.25;12.23;;;17.60;99.90;;;;;;5061888;28;20047;-42
2023/08/15 02:17:14;;;;;;;12.88;11.00;;;17.60;99.90;;;;;;5056776;28;20048;-42
2023/08/15 02:19:40;;;;;;;13.82;11.73;;;17.60;99.90;;;;;;5074247;28;20044;-39
2023/08/15 02:22:05;;;;;;;14.52;11.82;;;17.60;99.90;;;;;;5067729;28;20190;-41
2023/08/15 02:24:31;;;;;;;17.63;12.05;;;17.60;99.90;;;;;;5074796;28;20478;-39
2023/08/15 02:26:56;;;;;;;15.48;11.52;;;17.50;99.90;;;;;;5071815;28;20397;-40
2023/08/15 02:29:22;;;;;;;13.95;11.52;;;17.50;99.90;;;;;;5062678;28;20134;-43
2023/08/15 02:31:48;;;;;;;19.05;12.25;;;17.50;99.90;;;;;;5074188;28;20048;-39
2023/08/15 02:34:17;;;;;;;15.52;12.05;;;17.50;99.90;;;;;;5072435;28;20055;-45
2023/08/15 02:36:46;;;;;;;12.20;11.00;;;17.40;99.90;;;;;;5078284;28;20044;-42
2023/08/15 02:39:13;;;;;;;13.50;11.82;;;17.50;99.90;;;;;;5077528;28;20051;-39
2023/08/15 02:41:39;;;;;;;15.70;12.48;;;17.40;99.90;;;;;;5077694;28;20583;-43
2023/08/15 02:44:05;;;;;;;15.20;11.15;;;17.50;99.90;;;;;;5059287;28;20115;-39
2023/08/15 02:46:31;;;;;;;15.32;11.90;;;17.40;99.90;;;;;;5075326;28;20121;-43
2023/08/15 02:48:56;;;;;;;14.00;11.93;;;17.40;99.90;;;;;;5077677;28;20076;-43
2023/08/15 02:51:22;;;;;;;12.55;11.25;;;17.40;99.90;;;;;;5070748;28;20159;-40
2023/08/15 02:53:48;;;;;;;13.15;11.75;;;17.30;99.90;;;;;;5046928;28;20143;-40
2023/08/15 02:56:13;;;;;;;15.40;12.07;;;17.30;99.90;;;;;;5072920;28;20040;-45
2023/08/15 02:58:39;;;;;;;16.25;13.00;;;17.30;99.90;;;;;;5077776;28;20040;-40
2023/08/15 03:01:04;;;;;;;12.27;11.07;;;17.30;99.90;;;;;;5075257;28;20046;-44
2023/08/15 03:03:30;;;;;;;14.93;12.02;;;17.20;99.90;;;;;;5077151;28;20047;-44
2023/08/15 03:06:03;;;;;;;15.07;13.07;;;17.30;99.90;;;;;;5077464;28;20102;-41
2023/08/15 03:08:29;;;;;;;14.45;12.93;;;17.30;99.90;;;;;;5078217;28;20395;-42
2023/08/15 03:10:56;;;;;;;13.80;12.40;;;17.30;99.90;;;;;;5077576;28;20055;-41
2023/08/15 03:13:22;;;;;;;15.07;12.98;;;17.30;99.90;;;;;;5075110;28;20040;-43
2023/08/15 03:15:52;;;;;;;16.63;13.10;;;17.40;99.90;;;;;;5054736;28;20059;-39
2023/08/15 03:18:18;;;;;;;14.25;12.73;;;17.40;99.90;;;;;;5068915;28;20040;-42
2023/08/15 03:20:44;;;;;;;17.23;13.13;;;17.40;99.90;;;;;;5061996;28;20048;-43
2023/08/15 03:23:11;;;;;;;13.48;10.90;;;17.40;99.90;;;;;;5070026;28;20077;-38
2023/08/15 03:25:36;;;;;;;15.98;11.98;;;17.50;99.90;;;;;;5077176;28;20169;-39
2023/08/15 03:28:02;;;;;;;17.40;11.50;;;17.50;99.90;;;;;;5066145;28;20044;-41
2023/08/15 03:30:28;;;;;;;16.52;10.98;;;17.50;99.90;;;;;;5074729;28;20245;-39
2023/08/15 03:32:54;;;;;;;15.02;11.27;;;17.50;99.90;;;;;;5076101;28;20093;-43
2023/08/15 03:35:19;;;;;;;12.52;10.85;;;17.50;99.90;;;;;;5076699;28;20082;-39
2023/08/15 03:37:45;;;;;;;14.82;11.82;;;17.50;99.90;;;;;;5076977;28;20044;-46
2023/08/15 03:40:11;;;;;;;14.23;11.50;;;17.50;99.90;;;;;;5076601;28;20427;-44
2023/08/15 03:42:36;;;;;;;14.27;10.43;;;17.40;99.90;;;;;;5075794;28;20079;-43
2023/08/15 03:45:02;;;;;;;12.95;11.68;;;17.40;99.90;;;;;;5076240;28;20036;-43
2023/08/15 03:47:28;;;;;;;12.85;10.07;;;17.40;99.90;;;;;;5076241;28;20044;-39
2023/08/15 03:49:54;;;;;;;13.75;10.32;;;17.40;99.90;;;;;;5075794;28;20122;-43
2023/08/15 03:52:19;;;;;;;14.43;10.93;;;17.30;99.90;;;;;;5054186;28;20037;-46
2023/08/15 03:54:45;;;;;;;13.00;10.77;;;17.40;99.90;;;;;;5043086;28;20184;-44
2023/08/15 03:57:10;;;;;;;16.88;11.63;;;17.40;99.90;;;;;;5062285;28;20144;-43
2023/08/15 03:59:36;;;;;;;15.05;12.20;;;17.30;99.90;;;;;;5054954;28;20135;-44
2023/08/15 04:02:02;;;;;;;15.93;11.90;;;17.30;99.90;;;;;;5068226;28;20079;-41
2023/08/15 04:04:27;;;;;;;12.65;11.35;;;17.40;99.90;;;;;;5076258;28;20040;-38
2023/08/15 04:06:53;;;;;;;14.68;11.35;;;17.40;99.90;;;;;;5063132;28;20143;-40
2023/08/15 04:09:18;;;;;;;13.95;11.93;;;17.40;99.90;;;;;;5074958;28;20112;-40
2023/08/15 04:11:44;;;;;;;17.55;12.40;;;17.40;99.90;;;;;;5076183;28;20395;-41
2023/08/15 04:14:10;;;;;;;13.75;12.15;;;17.40;99.90;;;;;;5068429;28;20037;-42
2023/08/15 04:16:35;;;;;;;17.48;12.07;;;17.30;99.90;;;;;;5056363;28;20544;-41
2023/08/15 04:19:01;;;;;;;13.57;12.00;;;17.30;99.90;;;;;;5072947;28;20504;-40
2023/08/15 04:21:27;;;;;;;15.68;12.38;;;17.30;99.90;;;;;;5074308;28;20040;-43
2023/08/15 04:23:52;;;;;;;14.70;11.85;;;17.30;99.90;;;;;;5051940;28;20145;-39
2023/08/15 04:26:18;;;;;;;17.70;12.75;;;17.30;99.90;;;;;;5055333;28;20098;-43
2023/08/15 04:28:44;;;;;;;15.88;12.10;;;17.30;99.90;;;;;;5059069;28;20048;-38
2023/08/15 04:31:09;;;;;;;13.55;12.15;;;17.30;99.90;;;;;;5074455;28;20607;-41
2023/08/15 04:33:35;;;;;;;12.63;11.25;;;17.30;99.90;;;;;;5073146;28;20048;-40
2023/08/15 04:36:00;;;;;;;13.68;10.48;;;17.40;99.90;;;;;;5057062;28;20055;-44
2023/08/15 04:38:26;;;;;;;14.48;10.90;;;17.30;99.90;;;;;;5074767;28;20157;-42
2023/08/15 04:40:52;;;;;;;16.23;10.70;;;17.30;99.90;;;;;;5074732;28;20040;-43
2023/08/15 04:43:18;;;;;;;13.43;9.90;;;17.30;99.90;;;;;;5074606;28;20063;-39
2023/08/15 04:45:43;;;;;;;15.70;9.30;;;17.40;99.90;;;;;;5075171;28;20044;-40
2023/08/15 04:48:10;;;;;;;12.85;9.10;;;17.40;99.90;;;;;;5075193;28;20089;-39
2023/08/15 04:50:36;;;;;;;12.48;7.93;;;17.40;99.90;;;;;;5075165;28;20051;-40
2023/08/15 04:53:02;;;;;;;10.95;8.48;;;17.50;99.90;;;;;;5042601;28;20462;-47
2023/08/15 04:55:28;;;;;;;10.18;7.28;;;17.40;99.90;;;;;;5065464;28;20040;-41
2023/08/15 04:57:53;;;;;;;10.93;7.25;;;17.50;99.90;;;;;;5074705;28;20428;-43
2023/08/15 05:00:19;;;;;;;13.40;6.80;;;17.50;99.90;;;;;;5074712;28;20422;-39
2023/08/15 05:02:47;;;;;;;10.05;6.78;;;17.60;99.90;;;;;;5072819;28;20051;-43
2023/08/15 05:05:13;;;;;;;12.27;6.13;;;17.60;99.90;;;;;;5064198;28;20056;-43
2023/08/15 05:07:39;;;;;;;14.50;6.22;;;17.50;99.90;;;;;;5071177;28;20047;-42
2023/08/15 05:10:06;;;;;;;9.52;5.78;;;17.50;99.90;;;;;;5073966;28;20044;-43
2023/08/15 05:12:32;;;;;;;10.23;5.65;;;17.60;99.90;;;;;;5073746;28;20048;-40
2023/08/15 05:14:57;;;;;;;12.73;5.72;;;17.60;99.90;;;;;;5057021;28;20048;-39
2023/08/15 05:17:23;;;;;;;12.35;5.22;;;17.60;99.90;;;;;;5054013;28;20402;-44
2023/08/15 05:19:49;;;;;;;9.68;5.18;;;17.70;99.90;;;;;;5054220;28;20059;-42
2023/08/15 05:22:14;;;;;;;10.60;5.93;;;17.70;99.90;;;;;;5054055;28;20044;-43
2023/08/15 05:24:40;;;;;;;14.00;5.28;;;17.70;99.90;;;;;;5074834;28;20474;-40
2023/08/15 05:27:06;;;;;;;12.65;4.47;;;17.70;99.90;;;;;;5074491;28;20039;-43
2023/08/15 05:29:31;;;;;;;16.13;4.95;;;17.70;99.90;;;;;;5063613;28;20320;-40
2023/08/15 05:31:57;;;;;;;11.80;4.55;;;17.60;99.90;;;;;;5068075;28;20101;-40
2023/08/15 05:34:23;;;;;;;11.50;4.78;;;17.60;99.90;;;;;;5054611;28;20041;-38
2023/08/15 05:36:48;;;;;;;12.23;5.45;;;17.60;99.90;;;;;;5053992;28;20041;-40
2023/08/15 05:39:14;;;;;;;11.88;4.80;;;17.60;99.90;;;;;;5053738;28;20044;-44
2023/08/15 05:41:40;;;;;;;9.05;4.88;;;17.60;99.90;;;;;;5054452;28;20040;-44
2023/08/15 05:44:05;;;;;;;14.55;5.32;;;17.50;99.90;;;;;;5054740;28;20040;-40
2023/08/15 05:46:31;;;;;;;9.65;4.57;;;17.60;99.90;;;;;;5054289;28;20044;-39
2023/08/15 05:48:57;;;;;;;10.98;5.22;;;17.70;99.90;;;;;;5064659;28;20186;-44
2023/08/15 05:51:22;;;;;;;11.15;5.80;;;17.90;99.90;;;;;;5068030;28;20048;-42
2023/08/15 05:53:48;;;;;;;8.55;4.65;;;18.00;99.90;;;;;;5044348;28;20580;-39
2023/08/15 05:56:14;;;;;;;9.07;5.13;;;18.70;99.90;;;;;;5054118;28;20173;-45
2023/08/15 05:58:40;;;;;;;10.68;4.85;;;19.90;99.90;;;;;;5054437;28;20376;-41
2023/08/15 06:01:05;;;;;;;8.27;4.75;;;21.00;99.90;;;;;;5053467;28;20064;-44
2023/08/15 06:03:32;;;;;;;8.55;4.35;;;22.20;99.90;;;;;;5053309;28;20733;-43
2023/08/15 06:05:58;;;;;;;12.82;4.72;;;23.60;99.90;;;;;;5054036;28;20349;-41
2023/08/15 06:08:23;;;;;;;7.88;4.32;;;24.60;99.90;;;;;;5054118;28;20037;-43
2023/08/15 06:10:49;;;;;;;10.93;4.80;;;25.80;99.90;;;;;;5057004;28;20512;-46
2023/08/15 06:13:15;;;;;;;10.70;4.38;;;26.70;99.90;;;;;;5055796;28;20379;-46
2023/08/15 06:15:40;;;;;;;10.63;4.35;;;27.10;99.90;;;;;;5055885;28;20036;-43
2023/08/15 06:18:06;;;;;;;13.43;4.40;;;27.30;99.90;;;;;;5057970;28;20572;-40
2023/08/15 06:20:32;;;;;;;10.80;4.18;;;27.60;99.90;;;;;;5072037;28;20398;-46
2023/08/15 06:22:57;;;;;;;9.73;4.57;;;28.60;99.90;;;;;;5069939;28;20032;-45
2023/08/15 06:25:23;;;;;;;7.85;3.65;;;28.90;99.90;;;;;;5071877;28;20037;-43
2023/08/15 06:27:49;;;;;;;7.75;3.80;;;29.20;99.90;;;;;;5075254;28;20078;-41
2023/08/15 06:30:14;;;;;;;12.13;4.00;;;29.90;99.90;;;;;;5061919;28;20033;-44
2023/08/15 06:32:40;;;;;;;10.52;4.40;;;30.30;99.90;;;;;;5054252;28;20032;-46
2023/08/15 06:35:06;;;;;;;8.43;3.45;;;30.50;99.60;;;;;;5054353;28;20041;-45
2023/08/15 06:37:32;;;;;;;10.30;4.18;;;30.80;99.40;;;;;;5058359;28;20052;-44
2023/08/15 06:39:58;;;;;;;12.00;3.92;;;30.70;97.50;;;;;;5069005;28;20051;-44
2023/08/15 06:42:23;;;;;;;12.80;4.30;;;30.60;98.30;;;;;;5064603;28;20047;-45
2023/08/15 06:44:49;;;;;;;9.20;3.72;;;30.60;98.20;;;;;;5073512;28;20052;-43
2023/08/15 06:47:15;;;;;;;11.95;3.83;;;30.90;98.60;;;;;;5065085;28;20098;-48
2023/08/15 06:49:40;;;;;;;12.15;4.65;;;30.90;98.70;;;;;;5075557;28;20048;-45
2023/08/15 06:52:09;;;;;;;9.15;3.90;;;30.30;98.00;;;;;;5064179;28;20546;-45
2023/08/15 06:54:36;;;;;;;9.93;3.88;;;29.70;98.30;;;;;;5057423;28;20178;-45
2023/08/15 06:57:02;;;;;;;11.32;3.83;;;29.00;99.20;;;;;;5055727;28;20044;-40
2023/08/15 06:59:28;;;;;;;9.95;3.70;;;28.60;99.90;;;;;;5057258;28;20773;-44
2023/08/15 07:01:54;;;;;;;10.60;4.60;;;28.30;99.90;;;;;;5055785;28;20055;-43
2023/08/15 07:04:20;;;;;;;8.18;3.42;;;27.40;99.90;;;;;;5056069;28;20419;-43
2023/08/15 07:06:47;;;;;;;10.85;4.20;;;26.90;99.90;;;;;;5057761;28;20456;-44
2023/08/15 07:09:14;;;;;;;10.65;3.90;;;26.40;99.90;;;;;;5057055;28;20095;-44
2023/08/15 07:11:40;;;;;;;8.38;4.47;;;26.20;99.90;;;;;;5055968;28;20060;-45
2023/08/15 07:14:06;;;;;;;8.50;3.28;;;25.70;99.90;;;;;;5055383;28;20135;-47
2023/08/15 07:16:31;;;;;;;9.25;4.30;;;25.10;99.90;;;;;;5056382;28;20703;-42
2023/08/15 07:18:57;;;;;;;10.48;3.83;;;24.90;99.90;;;;;;5056385;28;20050;-44
2023/08/15 07:21:23;;;;;;;9.88;4.18;;;24.70;99.90;;;;;;5055841;28;20137;-43
2023/08/15 07:23:48;;;;;;;9.95;4.03;;;24.60;99.90;;;;;;5054329;28;20048;-43
2023/08/15 07:26:14;;;;;;;10.45;4.68;;;25.00;99.90;;;;;;5043302;28;20080;-42
2023/08/15 07:28:40;;;;;;;9.30;3.70;;;25.10;99.90;;;;;;5042328;28;20049;-47
2023/08/15 07:31:05;;;;;;;8.90;3.47;;;25.20;99.90;;;;;;5086776;27;20615;-40
2023/08/15 07:33:31;;;;;;;7.70;3.63;;;25.40;99.90;;;;;;5045845;28;20044;-43
2023/08/15 07:35:57;;;;;;;8.20;4.05;;;25.60;99.90;;;;;;5052866;28;20049;-47
2023/08/15 07:38:23;;;;;;;6.93;3.08;;;25.70;99.90;;;;;;5047903;28;20049;-42
2023/08/15 07:40:49;;;;;;;7.22;3.08;;;25.80;99.90;;;;;;5044735;28;20040;-49
2023/08/15 07:43:15;;;;;;;8.57;3.30;;;25.90;99.90;;;;;;5035613;28;20132;-47
2023/08/15 07:45:40;;;;;;;8.50;3.25;;;26.10;99.90;;;;;;5037143;28;20037;-41
2023/08/15 07:48:06;;;;;;;11.15;3.80;;;25.90;99.90;;;;;;5017951;28;20048;-42
2023/08/15 07:50:32;;;;;;;8.35;3.15;;;26.10;99.90;;;;;;5034977;28;20147;-45
2023/08/15 07:52:58;;;;;;;5.93;2.40;;;26.20;99.90;;;;;;5049009;28;20071;-43
2023/08/15 07:55:25;;;;;;;9.30;2.90;;;25.90;99.90;;;;;;5062327;28;20048;-46
2023/08/15 07:57:51;;;;;;;7.25;2.90;;;25.90;99.90;;;;;;5042091;28;20573;-45
2023/08/15 08:00:18;;;;;;;7.20;2.75;;;25.80;99.90;;;;;;5037142;28;20051;-44
2023/08/15 08:02:44;;;;;;;9.60;2.95;;;25.80;99.90;;;;;;5049318;28;20075;-40
2023/08/15 08:05:11;;;;;;;5.90;2.55;;;25.80;99.90;;;;;;5043401;28;20931;-41
2023/08/15 08:07:39;;;;;;;9.35;3.40;;;25.30;99.90;;;;;;5052722;28;20048;-44
2023/08/15 08:10:05;;;;;;;11.07;3.30;;;25.20;99.90;;;;;;5048842;28;20052;-40
2023/08/15 08:12:31;;;;;;;7.38;3.22;;;25.40;99.90;;;;;;5053395;28;20539;-44
2023/08/15 08:14:57;;;;;;;6.35;2.90;;;25.20;99.90;;;;;;5050925;28;20098;-45
2023/08/15 08:17:23;;;;;;;8.90;2.70;;;25.20;99.90;;;;;;5054100;28;20091;-45
2023/08/15 08:19:49;;;;;;;7.53;3.00;;;25.30;99.90;;;;;;5050322;28;20143;-45
2023/08/15 08:22:15;;;;;;;7.63;2.80;;;25.40;99.90;;;;;;5026961;28;20044;-45
2023/08/15 08:24:41;;;;;;;6.45;2.60;;;25.50;99.90;;;;;;5045639;28;20446;-45
2023/08/15 08:27:06;;;;;;;6.68;2.85;;;25.60;99.90;;;;;;5037553;28;20056;-48
2023/08/15 08:29:32;;;;;;;8.43;2.88;;;25.60;99.90;;;;;;5045731;28;20058;-47
2023/08/15 08:31:58;;;;;;;10.93;3.28;;;25.60;99.90;;;;;;5045810;28;20505;-43
2023/08/15 08:34:23;;;;;;;6.93;2.42;;;25.60;99.90;;;;;;5053152;28;20127;-46
2023/08/15 08:36:50;;;;;;;5.00;1.90;;;25.80;99.90;;;;;;5049931;28;20053;-47
2023/08/15 08:39:15;;;;;;;7.03;2.58;;;25.90;99.90;;;;;;5072286;28;20045;-43
2023/08/15 08:41:41;;;;;;;4.45;1.92;;;25.80;99.90;;;;;;5052590;28;20048;-44
2023/08/15 08:44:09;;;;;;;4.32;2.03;;;25.50;99.90;;;;;;5086038;27;20048;-44
2023/08/15 08:46:35;;;;;;;9.98;2.30;;;25.20;99.90;;;;;;5057102;28;20076;-43
2023/08/15 08:49:04;;;;;;;7.03;2.67;;;24.80;99.90;;;;;;5046048;28;20119;-41
2023/08/15 08:51:32;;;;;;;6.25;2.40;;;24.60;99.90;;;;;;5048280;28;20122;-44
2023/08/15 08:53:58;;;;;;;6.45;2.45;;;24.30;99.90;;;;;;5044527;28;20054;-41
2023/08/15 08:56:25;;;;;;;6.72;2.25;;;24.40;99.90;;;;;;5061683;28;20241;-44
2023/08/15 08:59:04;;;;;;;5.20;2.47;;;24.30;99.90;;;;;;5060327;28;20040;-44
2023/08/15 09:01:31;;;;;;;6.07;2.30;;;24.50;99.90;;;;;;5074865;28;20051;-48
2023/08/15 09:03:57;;;;;;;6.50;2.50;;;24.20;99.90;;;;;;5060843;28;20035;-41
2023/08/15 09:06:26;;;;;;;7.75;2.45;;;24.00;99.90;;;;;;5053262;28;20044;-41
2023/08/15 09:08:52;;;;;;;6.30;2.22;;;23.90;99.90;;;;;;5052556;28;20048;-39
2023/08/15 09:11:18;;;;;;;8.82;2.55;;;23.60;99.90;;;;;;5053632;28;20764;-39
2023/08/15 09:13:50;;;;;;;9.70;3.13;;;23.60;99.90;;;;;;5051638;28;20087;-40
2023/08/15 09:16:16;;;;;;;7.65;3.55;;;23.50;99.90;;;;;;5051478;28;20694;-42
2023/08/15 09:18:43;;;;;;;6.53;2.30;;;23.50;99.90;;;;;;5053021;28;20046;-43
2023/08/15 09:21:11;;;;;;;9.63;2.60;;;23.60;99.90;;;;;;5053676;28;20048;-45
2023/08/15 09:23:40;;;;;;;7.43;2.58;;;23.60;99.90;;;;;;5051693;28;20203;-47
2023/08/15 09:26:16;;;;;;;5.70;2.38;;;23.60;99.90;;;;;;5051990;28;20543;-40
2023/08/15 09:28:43;;;;;;;9.57;3.08;;;23.60;99.90;;;;;;5052971;28;20490;-41
2023/08/15 09:31:10;;;;;;;7.95;3.40;;;23.60;99.90;;;;;;5052157;28;20052;-44
2023/08/15 09:33:40;;;;;;;7.72;3.25;;;23.70;99.90;;;;;;5052235;28;20037;-42
2023/08/15 09:36:06;;;;;;;6.85;2.67;;;23.80;99.90;;;;;;5050698;28;20051;-44
2023/08/15 09:38:35;;;;;;;9.00;2.72;;;24.00;99.90;;;;;;5051801;28;20036;-46
2023/08/15 09:41:01;;;;;;;11.02;3.25;;;24.10;99.90;;;;;;5052285;28;20813;-46
2023/08/15 09:43:26;;;;;;;7.70;2.25;;;24.00;99.90;;;;;;5051896;28;20132;-43
2023/08/15 09:45:52;;;;;;;4.72;2.03;;;24.00;99.90;;;;;;5055323;28;20068;-44
2023/08/15 09:48:19;;;;;;;5.22;2.45;;;23.80;99.90;;;;;;5061559;28;20513;-44
2023/08/15 09:50:47;;;;;;;8.45;3.05;;;23.90;99.90;;;;;;5058935;28;20044;-47
2023/08/15 09:53:14;;;;;;;9.60;3.20;;;23.90;99.90;;;;;;5051430;28;20502;-42
2023/08/15 09:55:40;;;;;;;9.05;3.75;;;24.00;99.90;;;;;;5055900;28;20044;-41
2023/08/15 09:58:07;;;;;;;9.00;3.28;;;24.20;99.90;;;;;;5081457;27;20044;-45
2023/08/15 10:00:38;;;;;;;6.75;2.92;;;24.30;99.90;;;;;;5056053;28;20066;-41
2023/08/15 10:03:09;;;;;;;7.45;2.78;;;24.40;99.90;;;;;;5056590;28;20468;-42
2023/08/15 10:05:36;;;;;;;18.77;4.00;;;24.50;99.90;;;;;;5055641;28;20051;-43
2023/08/15 10:08:02;;;;;;;8.02;2.97;;;24.50;99.90;;;;;;5054550;28;20474;-40
2023/08/15 10:10:30;;;;;;;8.60;2.42;;;24.70;99.90;;;;;;5054960;28;20135;-39
2023/08/15 10:12:57;;;;;;;8.73;3.38;;;24.60;99.90;;;;;;5054471;28;20053;-47
2023/08/15 10:15:24;;;;;;;9.93;4.03;;;24.70;99.90;;;;;;5048830;28;20090;-39
2023/08/15 10:17:51;;;;;;;6.80;2.92;;;24.70;99.90;;;;;;5057016;28;20588;-46
2023/08/15 10:20:18;;;;;;;8.02;2.97;;;24.50;99.90;;;;;;5054179;28;20036;-46
2023/08/15 10:22:44;;;;;;;8.52;2.80;;;24.40;99.90;;;;;;5054575;28;20036;-42
2023/08/15 10:25:22;;;;;;;9.70;2.53;;;24.40;99.90;;;;;;5055977;28;20044;-40
2023/08/15 10:27:54;;;;;;;5.80;2.58;;;24.50;99.90;;;;;;5055637;28;20084;-40
2023/08/15 10:30:29;;;;;;;7.38;2.95;;;24.80;99.90;;;;;;5055661;28;20804;-48
2023/08/15 10:32:58;;;;;;;6.80;2.60;;;25.00;99.90;;;;;;5055973;28;20048;-44
2023/08/15 10:35:24;;;;;;;8.98;2.42;;;25.20;99.90;;;;;;5054469;28;20620;-46
2023/08/15 10:37:50;;;;;;;6.70;2.67;;;25.30;99.90;;;;;;5056714;28;20113;-47
2023/08/15 10:40:16;;;;;;;7.13;2.65;;;25.20;99.90;;;;;;5069718;28;20048;-46
2023/08/15 10:43:04;;;;;;;6.65;2.83;;;25.10;99.90;;;;;;5054680;28;20084;-42
2023/08/15 10:45:31;;;;;;;7.72;2.53;;;25.10;99.90;;;;;;5053391;28;20080;-46
2023/08/15 10:47:57;;;;;;;6.20;2.60;;;25.20;99.90;;;;;;5054516;28;20518;-43
2023/08/15 10:50:23;;;;;;;7.38;2.75;;;25.40;99.90;;;;;;5066207;28;20039;-47
2023/08/15 10:53:05;;;;;;;7.78;3.42;;;25.50;99.90;;;;;;5049733;28;20606;-47
2023/08/15 10:55:34;;;;;;;10.93;4.27;;;25.30;99.90;;;;;;5055513;28;20048;-44
2023/08/15 10:58:13;;;;;;;6.00;2.70;;;25.50;99.90;;;;;;5075147;28;20568;-45
2023/08/15 11:00:39;;;;;;;5.72;2.63;;;25.30;99.90;;;;;;5073112;28;20048;-45
2023/08/15 11:03:07;;;;;;;10.23;3.58;;;25.30;99.90;;;;;;5064587;28;20102;-42
2023/08/15 11:05:33;;;;;;;9.52;3.10;;;25.20;99.90;;;;;;5056233;28;20514;-46
2023/08/15 11:08:17;;;;;;;10.35;3.03;;;24.90;99.90;;;;;;5055350;28;20074;-44
2023/08/15 11:10:48;;;;;;;7.65;3.58;;;24.70;99.90;;;;;;5055417;28;20036;-45
2023/08/15 11:13:15;;;;;;;6.25;2.45;;;24.60;99.90;;;;;;5054691;28;20040;-44
2023/08/15 11:15:41;;;;;;;6.22;2.47;;;24.40;99.90;;;;;;5053141;28;20117;-44
2023/08/15 11:18:07;;;;;;;6.00;3.00;;;24.30;99.90;;;;;;5057539;28;20123;-43
2023/08/15 11:20:33;;;;;;;6.70;2.72;;;24.20;99.90;;;;;;5053976;28;20387;-43
2023/08/15 11:22:59;;;;;;;5.20;2.78;;;24.10;99.90;;;;;;5053914;28;20040;-48
2023/08/15 11:25:25;;;;;;;6.05;2.55;;;24.10;99.90;;;;;;5055242;28;20153;-38
2023/08/15 11:27:51;;;;;;;4.85;2.22;;;24.10;99.90;;;;;;5054810;28;20049;-45
2023/08/15 11:30:18;;;;;;;3.72;2.05;;;24.10;99.90;;;;;;5051458;28;20058;-41
2023/08/15 11:32:44;;;;;;;4.10;2.03;;;24.30;99.90;;;;;;5054633;28;20044;-44
2023/08/15 11:35:11;;;;;;;4.80;2.72;;;24.40;99.90;;;;;;5054268;28;20432;-41
2023/08/15 11:37:37;;;;;;;4.45;2.45;;;24.30;99.90;;;;;;5054849;28;20058;-39
2023/08/15 11:40:06;;;;;;;7.85;2.70;;;24.50;99.90;;;;;;5053601;28;20055;-45
2023/08/15 11:42:34;;;;;;;7.35;2.58;;;24.60;99.90;;;;;;5054196;28;20048;-46
2023/08/15 11:45:21;;;;;;;6.90;2.85;;;24.50;99.90;;;;;;5055267;28;20050;-47
2023/08/15 11:47:56;;;;;;;7.57;2.78;;;24.50;99.90;;;;;;5054061;28;20060;-44
2023/08/15 11:50:27;;;;;;;7.18;3.10;;;24.50;99.90;;;;;;5054341;28;20129;-43
2023/08/15 11:52:53;;;;;;;6.90;2.67;;;24.40;99.90;;;;;;5044983;28;20561;-45
2023/08/15 11:55:20;;;;;;;8.50;3.15;;;24.50;99.90;;;;;;5053683;28;20041;-44
2023/08/15 11:57:45;;;;;;;5.32;2.35;;;24.40;99.90;;;;;;5054306;28;20055;-46
2023/08/15 12:00:14;;;;;;;5.40;2.90;;;24.20;99.90;;;;;;5053366;28;20048;-47
2023/08/15 12:02:45;;;;;;;5.80;2.78;;;24.10;99.90;;;;;;5049377;28;20764;-42
2023/08/15 12:05:15;;;;;;;7.18;3.17;;;24.00;99.90;;;;;;5055297;28;20051;-40
2023/08/15 12:07:41;;;;;;;6.13;2.88;;;23.90;99.90;;;;;;5052982;28;20410;-45
2023/08/15 12:10:09;;;;;;;9.40;3.30;;;23.70;99.90;;;;;;5053147;28;20048;-44
2023/08/15 12:12:40;;;;;;;7.05;3.13;;;23.90;99.90;;;;;;5052824;28;20075;-47
2023/08/15 12:15:08;;;;;;;6.05;2.70;;;24.00;99.90;;;;;;5048465;28;20036;-40
2023/08/15 12:17:34;;;;;;;5.82;3.08;;;23.90;99.90;;;;;;5085288;28;20088;-44
2023/08/15 12:20:02;;;;;;;5.22;2.85;;;23.70;99.90;;;;;;5053757;28;20044;-47
2023/08/15 12:22:28;;;;;;;6.43;2.75;;;23.60;99.90;;;;;;5051845;28;20079;-41
2023/08/15 12:24:54;;;;;;;4.72;2.58;;;23.40;99.90;;;;;;5053709;28;20140;-47
2023/08/15 12:27:20;;;;;;;4.70;3.00;;;23.30;99.90;;;;;;5053203;28;20036;-45
2023/08/15 12:29:47;;;;;;;4.15;2.17;;;23.30;99.90;;;;;;5053936;28;20064;-45
2023/08/15 12:32:13;;;;;;;4.47;2.67;;;23.20;99.90;;;;;;5052721;28;20135;-45
2023/08/15 12:34:39;;;;;;;6.10;2.78;;;23.10;99.90;;;;;;5053084;28;20125;-47
2023/08/15 12:37:04;;;;;;;6.00;3.00;;;23.10;99.90;;;;;;5051519;28;20040;-47